Cathlamet — WYR7641 — position and weather

sailwx.info

Track history (hours):
 
Tides and Currents Weather Stations Pressure Air Temp Water Temp Dewpoint Dewpoint Depression Visibility Wind Speed Wind Dir Waves Ship Positions

Cathlamet

Owner: WASHINGTON, STATE OF; Dept. of Transportation, OLYMPIA, WA. More information available from US FCC via Universal Licensing System and Coast Guard Vessel Documentation Center.

Last reported at 2016-May-06 14:34 UTC. Time now 2016-May-06 14:56 UTC.
Position N 47°31' W 122°25'.

Length 100 m.

Type: Passenger vessel. MMSI: 366773070.

Date/timePositionNaut miles runAvg speedWind from/ knotsBaromVisibWave heightAir tempDewpointWater temp
2016-May-06 14:34N 47°31' W 122°25'0 0.3
2016-May-06 13:34N 47°31' W 122°24'2 2.5
2016-May-06 12:34N 47°31' W 122°28'0 0.0
2016-May-06 11:33N 47°31' W 122°28'1 1.0
2016-May-06 10:33N 47°31' W 122°29'1 1.1
2016-May-06 09:33N 47°31' W 122°28'1 1.3
2016-May-06 08:33N 47°31' W 122°30'2 1.8
2016-May-06 07:33N 47°31' W 122°27'2 2.3
2016-May-06 06:33N 47°31' W 122°24'2 2.1
2016-May-06 05:33N 47°31' W 122°27'1 0.5
2016-May-06 04:33N 47°31' W 122°28'0 0.3
2016-May-06 03:34N 47°31' W 122°28'3 2.8
2016-May-06 02:33N 47°31' W 122°24'4 4.1
2016-May-06 01:33N 47°31' W 122°30'4 4.0
2016-May-06 00:33N 47°31' W 122°24'0 0.1
2016-May-05 23:33N 47°31' W 122°24'0 0.1
2016-May-05 22:32N 47°31' W 122°24'3 2.9
2016-May-05 21:33N 47°31' W 122°28'1 0.6
2016-May-05 20:33N 47°31' W 122°27'0 0.4
2016-May-05 19:33N 47°31' W 122°28'2 1.9
2016-May-05 18:21N 47°31' W 122°25'0 0.3
2016-May-05 17:31N 47°31' W 122°24'2 2.5
2016-May-05 16:33N 47°31' W 122°28'0 0.0
2016-May-05 15:34N 47°31' W 122°28'2 2.4
2016-May-05 14:33N 47°31' W 122°24'0 0.2
2016-May-05 13:33N 47°31' W 122°24'2 2.5
2016-May-05 12:33N 47°31' W 122°28'0 0.0
2016-May-05 11:33N 47°31' W 122°28'1 1.1
2016-May-05 10:34N 47°31' W 122°29'1 1.1
2016-May-05 09:33N 47°31' W 122°28'1 1.3
2016-May-05 08:33N 47°31' W 122°30'2 1.9
2016-May-05 07:33N 47°31' W 122°27'2 2.0
2016-May-05 06:29N 47°31' W 122°24'3 2.9
2016-May-05 05:34N 47°31' W 122°28'0 0.1
2016-May-05 04:34N 47°31' W 122°28'1 1.1
2016-May-05 03:33N 47°31' W 122°29'4 3.8
2016-May-05 02:33N 47°31' W 122°24'4 3.5
2016-May-05 01:24N 47°31' W 122°30'4 4.5
2016-May-05 00:30N 47°31' W 122°24'0 0.0
2016-May-04 23:31N 47°31' W 122°24'0 0.0
2016-May-04 22:33N 47°31' W 122°24'4 3.9
2016-May-04 21:33N 47°31' W 122°30'1 1.2
2016-May-04 20:33N 47°31' W 122°28'0 0.1
2016-May-04 19:34N 47°31' W 122°28'3 2.7
2016-May-04 18:33N 47°31' W 122°24'3 2.6
2016-May-04 17:33N 47°31' W 122°28'1 1.2
2016-May-04 16:33N 47°31' W 122°26'3 2.7
2016-May-04 15:33N 47°31' W 122°30'1 1.3
2016-May-04 14:34N 47°31' W 122°28'2 2.0
2016-May-04 13:33N 47°31' W 122°25'2 2.1
2016-May-04 12:33N 47°31' W 122°28'0 0.0
2016-May-04 11:34N 47°31' W 122°28'1 1.2
2016-May-04 10:34N 47°31' W 122°30'1 1.2
2016-May-04 09:33N 47°31' W 122°28'1 1.3
2016-May-04 08:33N 47°31' W 122°30'2 1.9
2016-May-04 07:33N 47°31' W 122°27'2 2.1
2016-May-04 06:33N 47°31' W 122°24'3 2.7
2016-May-04 05:34N 47°31' W 122°28'0 0.1
2016-May-04 04:34N 47°31' W 122°28'1 0.7
2016-May-04 03:33N 47°31' W 122°29'3 3.1
2016-May-04 02:33N 47°31' W 122°24'4 3.8
2016-May-04 01:34N 47°31' W 122°30'4 3.9
2016-May-04 00:33N 47°31' W 122°24'0 0.0
2016-May-03 23:33N 47°31' W 122°24'0 0.0
2016-May-03 22:33N 47°31' W 122°24'4 3.7
2016-May-03 21:33N 47°31' W 122°29'1 1.1
2016-May-03 20:34N 47°31' W 122°28'0 0.2
2016-May-03 19:34N 47°31' W 122°28'3 2.8
2016-May-03 18:33N 47°31' W 122°24'0 0.0
2016-May-03 17:34N 47°31' W 122°24'3 2.8
2016-May-03 16:33N 47°31' W 122°28'0 0.1
2016-May-03 15:33N 47°31' W 122°28'2 2.4
2016-May-03 14:34N 47°31' W 122°24'0 0.2
2016-May-03 13:33N 47°31' W 122°24'3 2.6
2016-May-03 12:33N 47°31' W 122°28'0 0.0
2016-May-03 11:33N 47°31' W 122°28'1 1.2
2016-May-03 10:33N 47°31' W 122°30'1 1.2
2016-May-03 09:33N 47°31' W 122°28'1 1.3
2016-May-03 08:33N 47°31' W 122°30'2 1.6
2016-May-03 07:34N 47°31' W 122°27'2 2.4
2016-May-03 06:33N 47°31' W 122°24'3 2.7
2016-May-03 05:34N 47°31' W 122°28'0 0.1
2016-May-03 04:34N 47°31' W 122°28'0 0.2
2016-May-03 03:34N 47°31' W 122°28'2 2.4
2016-May-03 02:34N 47°31' W 122°25'4 3.6
2016-May-03 01:34N 47°31' W 122°30'4 4.0
2016-May-03 00:33N 47°31' W 122°24'0 0.2
2016-May-02 23:34N 47°31' W 122°24'0 0.2
2016-May-02 22:33N 47°31' W 122°24'3 3.3
2016-May-02 21:33N 47°31' W 122°29'1 1.0
2016-May-02 20:33N 47°31' W 122°27'0 0.5
2016-May-02 19:33N 47°31' W 122°28'3 2.8
2016-May-02 18:33N 47°31' W 122°24'0 0.0
2016-May-02 17:33N 47°31' W 122°24'3 2.8
2016-May-02 16:33N 47°31' W 122°28'0 0.1
2016-May-02 15:33N 47°31' W 122°28'3 2.7
2016-May-02 14:33N 47°31' W 122°24'0 0.0
2016-May-02 13:33N 47°31' W 122°24'3 2.8
2016-May-02 12:33N 47°31' W 122°28'0 0.0
2016-May-02 11:33N 47°31' W 122°28'1 1.2
2016-May-02 10:33N 47°31' W 122°30'1 1.2
2016-May-02 09:33N 47°31' W 122°28'1 1.3
2016-May-02 08:33N 47°31' W 122°30'2 1.6
2016-May-02 07:33N 47°31' W 122°27'2 2.4
2016-May-02 06:33N 47°31' W 122°24'3 2.8
2016-May-02 05:34N 47°31' W 122°28'1 0.9
2016-May-02 04:34N 47°31' W 122°27'2 1.8
2016-May-02 03:33N 47°31' W 122°29'4 3.6
2016-May-02 02:34N 47°31' W 122°24'0 0.0
2016-May-02 01:34N 47°31' W 122°24'0 0.0
2016-May-02 00:34N 47°31' W 122°24'3 2.6
2016-May-01 23:34N 47°31' W 122°28'0 0.0
2016-May-01 22:34N 47°31' W 122°28'2 1.5
2016-May-01 21:33N 47°31' W 122°26'1 1.3
2016-May-01 20:33N 47°31' W 122°24'4 3.5
2016-May-01 19:33N 47°31' W 122°29'2 1.7
2016-May-01 18:33N 47°31' W 122°27'1 0.9
2016-May-01 17:33N 47°31' W 122°28'0 0.0
2016-May-01 16:33N 47°31' W 122°28'2 1.5
2016-May-01 15:33N 47°31' W 122°26'3 2.8
2016-May-01 14:33N 47°31' W 122°30'4 3.9
2016-May-01 13:33N 47°31' W 122°24'3 2.6
2016-May-01 12:33N 47°31' W 122°28'0 0.0
2016-May-01 11:34N 47°31' W 122°28'1 1.3
2016-May-01 10:33N 47°31' W 122°30'1 1.3
2016-May-01 09:33N 47°31' W 122°28'1 0.7
2016-May-01 08:33N 47°31' W 122°29'1 0.7
2016-May-01 07:34N 47°31' W 122°30'3 2.5
2016-May-01 06:33N 47°31' W 122°26'2 1.5
2016-May-01 05:33N 47°31' W 122°24'0 0.0
2016-May-01 04:33N 47°31' W 122°24'4 4.1
2016-May-01 03:33N 47°31' W 122°30'4 4.1
2016-May-01 02:34N 47°31' W 122°24'3 2.5
2016-May-01 01:34N 47°31' W 122°28'1 1.3
2016-May-01 00:33N 47°31' W 122°26'2 1.5
2016-Apr-30 23:34N 47°31' W 122°28'0 0.0
2016-Apr-30 22:33N 47°31' W 122°28'1 1.1
2016-Apr-30 21:34N 47°31' W 122°26'1 1.1
2016-Apr-30 20:33N 47°31' W 122°28'1 0.5
2016-Apr-30 19:33N 47°31' W 122°29'3 3.2
2016-Apr-30 18:33N 47°31' W 122°24'3 2.8
2016-Apr-30 17:33N 47°31' W 122°28'0 0.2
2016-Apr-30 16:34N 47°31' W 122°28'2 1.8
2016-Apr-30 15:33N 47°31' W 122°25'3 3.2
2016-Apr-30 14:33N 47°31' W 122°30'4 3.5
2016-Apr-30 13:33N 47°31' W 122°25'2 2.3
2016-Apr-30 12:33N 47°31' W 122°28'0 0.0
2016-Apr-30 11:33N 47°31' W 122°28'1 1.3
2016-Apr-30 10:33N 47°31' W 122°30'1 1.3
2016-Apr-30 09:33N 47°31' W 122°28'0 0.2
2016-Apr-30 08:33N 47°31' W 122°28'0 0.5
2016-Apr-30 07:34N 47°31' W 122°28'0 0.1
2016-Apr-30 06:34N 47°31' W 122°29'3 3.1
2016-Apr-30 05:31N 47°31' W 122°24'3 2.9
2016-Apr-30 04:33N 47°31' W 122°28'0 0.2
2016-Apr-30 03:33N 47°31' W 122°28'3 2.6
2016-Apr-30 02:34N 47°31' W 122°24'4 3.6
2016-Apr-30 01:33N 47°31' W 122°30'4 4.0
2016-Apr-30 00:33N 47°31' W 122°24'0 0.0
2016-Apr-29 23:33N 47°31' W 122°24'0 0.0
2016-Apr-29 22:31N 47°31' W 122°24'4 4.0
2016-Apr-29 21:33N 47°31' W 122°30'1 1.2
2016-Apr-29 20:34N 47°31' W 122°28'0 0.2
2016-Apr-29 19:33N 47°31' W 122°28'3 2.8
2016-Apr-29 18:33N 47°31' W 122°24'0 0.0
2016-Apr-29 17:33N 47°31' W 122°24'3 3.1
2016-Apr-29 16:34N 47°31' W 122°28'1 0.5
2016-Apr-29 15:34N 47°31' W 122°28'2 2.3
2016-Apr-29 14:34N 47°31' W 122°24'0 0.3
2016-Apr-29 13:33N 47°31' W 122°24'3 2.6
2016-Apr-29 12:33N 47°31' W 122°28'0 0.0
2016-Apr-29 11:33N 47°31' W 122°28'1 0.9
2016-Apr-29 10:33N 47°31' W 122°29'1 0.9
2016-Apr-29 09:34N 47°31' W 122°28'1 1.3
2016-Apr-29 08:34N 47°31' W 122°30'0 0.4
2016-Apr-29 07:34N 47°31' W 122°29'4 3.7
2016-Apr-29 06:33N 47°31' W 122°24'2 2.2
2016-Apr-29 05:33N 47°31' W 122°27'2 1.9
2016-Apr-29 04:33N 47°31' W 122°30'2 1.7
2016-Apr-29 03:33N 47°31' W 122°27'1 0.6
2016-Apr-29 02:34N 47°31' W 122°28'3 2.9
2016-Apr-29 01:33N 47°31' W 122°24'3 2.8
2016-Apr-29 00:33N 47°31' W 122°28'0 0.0
2016-Apr-28 23:33N 47°31' W 122°28'2 1.8
2016-Apr-28 22:33N 47°31' W 122°25'1 1.0
2016-Apr-28 21:33N 47°31' W 122°24'3 2.8
2016-Apr-28 20:33N 47°31' W 122°28'2 1.8
2016-Apr-28 19:33N 47°31' W 122°25'2 1.8
2016-Apr-28 18:33N 47°31' W 122°28'0 0.2
2016-Apr-28 17:34N 47°31' W 122°28'0 0.2
2016-Apr-28 16:33N 47°31' W 122°28'3 2.8
2016-Apr-28 15:33N 47°31' W 122°24'3 2.8
2016-Apr-28 14:34N 47°31' W 122°28'0 0.1
2016-Apr-28 13:33N 47°31' W 122°28'0 0.0
2016-Apr-28 12:33N 47°31' W 122°28'0 0.0
2016-Apr-28 11:33N 47°31' W 122°28'0 0.0
2016-Apr-28 10:33N 47°31' W 122°28'0 0.0
2016-Apr-28 09:33N 47°31' W 122°28'0 0.0
2016-Apr-28 08:33N 47°31' W 122°28'0 0.0
2016-Apr-28 07:33N 47°31' W 122°28'0 0.0
2016-Apr-28 06:33N 47°31' W 122°28'0 0.0
2016-Apr-28 05:33N 47°31' W 122°28'1 1.3
2016-Apr-28 04:33N 47°31' W 122°30'2 1.8
2016-Apr-28 03:33N 47°31' W 122°27'1 0.5
2016-Apr-28 02:34N 47°31' W 122°28'3 2.8
2016-Apr-28 01:33N 47°31' W 122°24'3 2.8
2016-Apr-28 00:34N 47°31' W 122°28'0 0.0
2016-Apr-27 23:33N 47°31' W 122°28'2 1.6
2016-Apr-27 22:33N 47°31' W 122°25'1 1.2
2016-Apr-27 21:33N 47°31' W 122°24'3 2.8
2016-Apr-27 20:33N 47°31' W 122°28'2 1.8
2016-Apr-27 19:33N 47°31' W 122°25'2 1.7
2016-Apr-27 18:34N 47°31' W 122°28'0 0.1
2016-Apr-27 17:33N 47°31' W 122°28'0 0.2
2016-Apr-27 16:34N 47°31' W 122°28'3 2.8
2016-Apr-27 15:34N 47°31' W 122°24'3 2.8
2016-Apr-27 14:33N 47°31' W 122°28'0 0.0
2016-Apr-27 13:34N 47°31' W 122°28'0 0.0
2016-Apr-27 12:33N 47°31' W 122°28'0 0.0
2016-Apr-27 11:33N 47°31' W 122°28'0 0.0
2016-Apr-27 10:33N 47°31' W 122°28'0 0.0
2016-Apr-27 09:33N 47°31' W 122°28'0 0.0
2016-Apr-27 08:33N 47°31' W 122°28'0 0.0
2016-Apr-27 07:33N 47°31' W 122°28'0 0.0
2016-Apr-27 06:33N 47°31' W 122°28'0 0.0
2016-Apr-27 05:33N 47°31' W 122°28'1 1.3
2016-Apr-27 04:33N 47°31' W 122°30'2 1.7
2016-Apr-27 03:34N 47°31' W 122°27'0 0.4
2016-Apr-27 02:33N 47°31' W 122°28'3 2.8
2016-Apr-27 01:33N 47°31' W 122°24'3 2.8
2016-Apr-27 00:33N 47°31' W 122°28'0 0.0
2016-Apr-26 23:33N 47°31' W 122°28'2 1.6
2016-Apr-26 22:33N 47°31' W 122°25'1 1.2
2016-Apr-26 21:33N 47°31' W 122°24'3 2.8
2016-Apr-26 20:33N 47°31' W 122°28'1 1.2
2016-Apr-26 19:34N 47°31' W 122°26'1 1.1
2016-Apr-26 18:33N 47°31' W 122°28'0 0.4
2016-Apr-26 17:33N 47°31' W 122°27'1 0.5
2016-Apr-26 16:33N 47°31' W 122°28'3 2.8
2016-Apr-26 15:34N 47°31' W 122°24'  
Track history (hours):
 
Tides and Currents Weather Stations Pressure Air Temp Water Temp Dewpoint Dewpoint Depression Visibility Wind Speed Wind Dir Waves Ship Positions

Cathlamet

Owner: WASHINGTON, STATE OF; Dept. of Transportation, OLYMPIA, WA. More information available from US FCC via Universal Licensing System and Coast Guard Vessel Documentation Center.

Last reported at 2016-May-06 14:34 UTC. Time now 2016-May-06 14:56 UTC.
Position N 47°31' W 122°25'.

Length 100 m.

Type: Passenger vessel. MMSI: 366773070.

Date/timePositionNaut miles runAvg speedWind from/ knotsBaromVisibWave heightAir tempDewpointWater temp
2016-May-06 14:34N 47°31' W 122°25'0 0.3
2016-May-06 13:34N 47°31' W 122°24'2 2.5
2016-May-06 12:34N 47°31' W 122°28'0 0.0
2016-May-06 11:33N 47°31' W 122°28'1 1.0
2016-May-06 10:33N 47°31' W 122°29'1 1.1
2016-May-06 09:33N 47°31' W 122°28'1 1.3
2016-May-06 08:33N 47°31' W 122°30'2 1.8
2016-May-06 07:33N 47°31' W 122°27'2 2.3
2016-May-06 06:33N 47°31' W 122°24'2 2.1
2016-May-06 05:33N 47°31' W 122°27'1 0.5
2016-May-06 04:33N 47°31' W 122°28'0 0.3
2016-May-06 03:34N 47°31' W 122°28'3 2.8
2016-May-06 02:33N 47°31' W 122°24'4 4.1
2016-May-06 01:33N 47°31' W 122°30'4 4.0
2016-May-06 00:33N 47°31' W 122°24'0 0.1
2016-May-05 23:33N 47°31' W 122°24'0 0.1
2016-May-05 22:32N 47°31' W 122°24'3 2.9
2016-May-05 21:33N 47°31' W 122°28'1 0.6
2016-May-05 20:33N 47°31' W 122°27'0 0.4
2016-May-05 19:33N 47°31' W 122°28'2 1.9
2016-May-05 18:21N 47°31' W 122°25'0 0.3
2016-May-05 17:31N 47°31' W 122°24'2 2.5
2016-May-05 16:33N 47°31' W 122°28'0 0.0
2016-May-05 15:34N 47°31' W 122°28'2 2.4
2016-May-05 14:33N 47°31' W 122°24'0 0.2
2016-May-05 13:33N 47°31' W 122°24'2 2.5
2016-May-05 12:33N 47°31' W 122°28'0 0.0
2016-May-05 11:33N 47°31' W 122°28'1 1.1
2016-May-05 10:34N 47°31' W 122°29'1 1.1
2016-May-05 09:33N 47°31' W 122°28'1 1.3
2016-May-05 08:33N 47°31' W 122°30'2 1.9
2016-May-05 07:33N 47°31' W 122°27'2 2.0
2016-May-05 06:29N 47°31' W 122°24'3 2.9
2016-May-05 05:34N 47°31' W 122°28'0 0.1
2016-May-05 04:34N 47°31' W 122°28'1 1.1
2016-May-05 03:33N 47°31' W 122°29'4 3.8
2016-May-05 02:33N 47°31' W 122°24'4 3.5
2016-May-05 01:24N 47°31' W 122°30'4 4.5
2016-May-05 00:30N 47°31' W 122°24'0 0.0
2016-May-04 23:31N 47°31' W 122°24'0 0.0
2016-May-04 22:33N 47°31' W 122°24'4 3.9
2016-May-04 21:33N 47°31' W 122°30'1 1.2
2016-May-04 20:33N 47°31' W 122°28'0 0.1
2016-May-04 19:34N 47°31' W 122°28'3 2.7
2016-May-04 18:33N 47°31' W 122°24'3 2.6
2016-May-04 17:33N 47°31' W 122°28'1 1.2
2016-May-04 16:33N 47°31' W 122°26'3 2.7
2016-May-04 15:33N 47°31' W 122°30'1 1.3
2016-May-04 14:34N 47°31' W 122°28'2 2.0
2016-May-04 13:33N 47°31' W 122°25'2 2.1
2016-May-04 12:33N 47°31' W 122°28'0 0.0
2016-May-04 11:34N 47°31' W 122°28'1 1.2
2016-May-04 10:34N 47°31' W 122°30'1 1.2
2016-May-04 09:33N 47°31' W 122°28'1 1.3
2016-May-04 08:33N 47°31' W 122°30'2 1.9
2016-May-04 07:33N 47°31' W 122°27'2 2.1
2016-May-04 06:33N 47°31' W 122°24'3 2.7
2016-May-04 05:34N 47°31' W 122°28'0 0.1
2016-May-04 04:34N 47°31' W 122°28'1 0.7
2016-May-04 03:33N 47°31' W 122°29'3 3.1
2016-May-04 02:33N 47°31' W 122°24'4 3.8
2016-May-04 01:34N 47°31' W 122°30'4 3.9
2016-May-04 00:33N 47°31' W 122°24'0 0.0
2016-May-03 23:33N 47°31' W 122°24'0 0.0
2016-May-03 22:33N 47°31' W 122°24'4 3.7
2016-May-03 21:33N 47°31' W 122°29'1 1.1
2016-May-03 20:34N 47°31' W 122°28'0 0.2
2016-May-03 19:34N 47°31' W 122°28'3 2.8
2016-May-03 18:33N 47°31' W 122°24'0 0.0
2016-May-03 17:34N 47°31' W 122°24'3 2.8
2016-May-03 16:33N 47°31' W 122°28'0 0.1
2016-May-03 15:33N 47°31' W 122°28'2 2.4
2016-May-03 14:34N 47°31' W 122°24'0 0.2
2016-May-03 13:33N 47°31' W 122°24'3 2.6
2016-May-03 12:33N 47°31' W 122°28'0 0.0
2016-May-03 11:33N 47°31' W 122°28'1 1.2
2016-May-03 10:33N 47°31' W 122°30'1 1.2
2016-May-03 09:33N 47°31' W 122°28'1 1.3
2016-May-03 08:33N 47°31' W 122°30'2 1.6
2016-May-03 07:34N 47°31' W 122°27'2 2.4
2016-May-03 06:33N 47°31' W 122°24'3 2.7
2016-May-03 05:34N 47°31' W 122°28'0 0.1
2016-May-03 04:34N 47°31' W 122°28'0 0.2
2016-May-03 03:34N 47°31' W 122°28'2 2.4
2016-May-03 02:34N 47°31' W 122°25'4 3.6
2016-May-03 01:34N 47°31' W 122°30'4 4.0
2016-May-03 00:33N 47°31' W 122°24'0 0.2
2016-May-02 23:34N 47°31' W 122°24'0 0.2
2016-May-02 22:33N 47°31' W 122°24'3 3.3
2016-May-02 21:33N 47°31' W 122°29'1 1.0
2016-May-02 20:33N 47°31' W 122°27'0 0.5
2016-May-02 19:33N 47°31' W 122°28'3 2.8
2016-May-02 18:33N 47°31' W 122°24'0 0.0
2016-May-02 17:33N 47°31' W 122°24'3 2.8
2016-May-02 16:33N 47°31' W 122°28'0 0.1
2016-May-02 15:33N 47°31' W 122°28'3 2.7
2016-May-02 14:33N 47°31' W 122°24'0 0.0
2016-May-02 13:33N 47°31' W 122°24'3 2.8
2016-May-02 12:33N 47°31' W 122°28'0 0.0
2016-May-02 11:33N 47°31' W 122°28'1 1.2
2016-May-02 10:33N 47°31' W 122°30'1 1.2
2016-May-02 09:33N 47°31' W 122°28'1 1.3
2016-May-02 08:33N 47°31' W 122°30'2 1.6
2016-May-02 07:33N 47°31' W 122°27'2 2.4
2016-May-02 06:33N 47°31' W 122°24'3 2.8
2016-May-02 05:34N 47°31' W 122°28'1 0.9
2016-May-02 04:34N 47°31' W 122°27'2 1.8
2016-May-02 03:33N 47°31' W 122°29'4 3.6
2016-May-02 02:34N 47°31' W 122°24'0 0.0
2016-May-02 01:34N 47°31' W 122°24'0 0.0
2016-May-02 00:34N 47°31' W 122°24'3 2.6
2016-May-01 23:34N 47°31' W 122°28'0 0.0
2016-May-01 22:34N 47°31' W 122°28'2 1.5
2016-May-01 21:33N 47°31' W 122°26'1 1.3
2016-May-01 20:33N 47°31' W 122°24'4 3.5
2016-May-01 19:33N 47°31' W 122°29'2 1.7
2016-May-01 18:33N 47°31' W 122°27'1 0.9
2016-May-01 17:33N 47°31' W 122°28'0 0.0
2016-May-01 16:33N 47°31' W 122°28'2 1.5
2016-May-01 15:33N 47°31' W 122°26'3 2.8
2016-May-01 14:33N 47°31' W 122°30'4 3.9
2016-May-01 13:33N 47°31' W 122°24'3 2.6
2016-May-01 12:33N 47°31' W 122°28'0 0.0
2016-May-01 11:34N 47°31' W 122°28'1 1.3
2016-May-01 10:33N 47°31' W 122°30'1 1.3
2016-May-01 09:33N 47°31' W 122°28'1 0.7
2016-May-01 08:33N 47°31' W 122°29'1 0.7
2016-May-01 07:34N 47°31' W 122°30'3 2.5
2016-May-01 06:33N 47°31' W 122°26'2 1.5
2016-May-01 05:33N 47°31' W 122°24'0 0.0
2016-May-01 04:33N 47°31' W 122°24'4 4.1
2016-May-01 03:33N 47°31' W 122°30'4 4.1
2016-May-01 02:34N 47°31' W 122°24'3 2.5
2016-May-01 01:34N 47°31' W 122°28'1 1.3
2016-May-01 00:33N 47°31' W 122°26'2 1.5
2016-Apr-30 23:34N 47°31' W 122°28'0 0.0
2016-Apr-30 22:33N 47°31' W 122°28'1 1.1
2016-Apr-30 21:34N 47°31' W 122°26'1 1.1
2016-Apr-30 20:33N 47°31' W 122°28'1 0.5
2016-Apr-30 19:33N 47°31' W 122°29'3 3.2
2016-Apr-30 18:33N 47°31' W 122°24'3 2.8
2016-Apr-30 17:33N 47°31' W 122°28'0 0.2
2016-Apr-30 16:34N 47°31' W 122°28'2 1.8
2016-Apr-30 15:33N 47°31' W 122°25'3 3.2
2016-Apr-30 14:33N 47°31' W 122°30'4 3.5
2016-Apr-30 13:33N 47°31' W 122°25'2 2.3
2016-Apr-30 12:33N 47°31' W 122°28'0 0.0
2016-Apr-30 11:33N 47°31' W 122°28'1 1.3
2016-Apr-30 10:33N 47°31' W 122°30'1 1.3
2016-Apr-30 09:33N 47°31' W 122°28'0 0.2
2016-Apr-30 08:33N 47°31' W 122°28'0 0.5
2016-Apr-30 07:34N 47°31' W 122°28'0 0.1
2016-Apr-30 06:34N 47°31' W 122°29'3 3.1
2016-Apr-30 05:31N 47°31' W 122°24'3 2.9
2016-Apr-30 04:33N 47°31' W 122°28'0 0.2
2016-Apr-30 03:33N 47°31' W 122°28'3 2.6
2016-Apr-30 02:34N 47°31' W 122°24'4 3.6
2016-Apr-30 01:33N 47°31' W 122°30'4 4.0
2016-Apr-30 00:33N 47°31' W 122°24'0 0.0
2016-Apr-29 23:33N 47°31' W 122°24'0 0.0
2016-Apr-29 22:31N 47°31' W 122°24'4 4.0
2016-Apr-29 21:33N 47°31' W 122°30'1 1.2
2016-Apr-29 20:34N 47°31' W 122°28'0 0.2
2016-Apr-29 19:33N 47°31' W 122°28'3 2.8
2016-Apr-29 18:33N 47°31' W 122°24'0 0.0
2016-Apr-29 17:33N 47°31' W 122°24'3 3.1
2016-Apr-29 16:34N 47°31' W 122°28'1 0.5
2016-Apr-29 15:34N 47°31' W 122°28'2 2.3
2016-Apr-29 14:34N 47°31' W 122°24'0 0.3
2016-Apr-29 13:33N 47°31' W 122°24'3 2.6
2016-Apr-29 12:33N 47°31' W 122°28'0 0.0
2016-Apr-29 11:33N 47°31' W 122°28'1 0.9
2016-Apr-29 10:33N 47°31' W 122°29'1 0.9
2016-Apr-29 09:34N 47°31' W 122°28'1 1.3
2016-Apr-29 08:34N 47°31' W 122°30'0 0.4
2016-Apr-29 07:34N 47°31' W 122°29'4 3.7
2016-Apr-29 06:33N 47°31' W 122°24'2 2.2
2016-Apr-29 05:33N 47°31' W 122°27'2 1.9
2016-Apr-29 04:33N 47°31' W 122°30'2 1.7
2016-Apr-29 03:33N 47°31' W 122°27'1 0.6
2016-Apr-29 02:34N 47°31' W 122°28'3 2.9
2016-Apr-29 01:33N 47°31' W 122°24'3 2.8
2016-Apr-29 00:33N 47°31' W 122°28'0 0.0
2016-Apr-28 23:33N 47°31' W 122°28'2 1.8
2016-Apr-28 22:33N 47°31' W 122°25'1 1.0
2016-Apr-28 21:33N 47°31' W 122°24'3 2.8
2016-Apr-28 20:33N 47°31' W 122°28'2 1.8
2016-Apr-28 19:33N 47°31' W 122°25'2 1.8
2016-Apr-28 18:33N 47°31' W 122°28'0 0.2
2016-Apr-28 17:34N 47°31' W 122°28'0 0.2
2016-Apr-28 16:33N 47°31' W 122°28'3 2.8
2016-Apr-28 15:33N 47°31' W 122°24'3 2.8
2016-Apr-28 14:34N 47°31' W 122°28'0 0.1
2016-Apr-28 13:33N 47°31' W 122°28'0 0.0
2016-Apr-28 12:33N 47°31' W 122°28'0 0.0
2016-Apr-28 11:33N 47°31' W 122°28'0 0.0
2016-Apr-28 10:33N 47°31' W 122°28'0 0.0
2016-Apr-28 09:33N 47°31' W 122°28'0 0.0
2016-Apr-28 08:33N 47°31' W 122°28'0 0.0
2016-Apr-28 07:33N 47°31' W 122°28'0 0.0
2016-Apr-28 06:33N 47°31' W 122°28'0 0.0
2016-Apr-28 05:33N 47°31' W 122°28'1 1.3
2016-Apr-28 04:33N 47°31' W 122°30'2 1.8
2016-Apr-28 03:33N 47°31' W 122°27'1 0.5
2016-Apr-28 02:34N 47°31' W 122°28'3 2.8
2016-Apr-28 01:33N 47°31' W 122°24'3 2.8
2016-Apr-28 00:34N 47°31' W 122°28'0 0.0
2016-Apr-27 23:33N 47°31' W 122°28'2 1.6
2016-Apr-27 22:33N 47°31' W 122°25'1 1.2
2016-Apr-27 21:33N 47°31' W 122°24'3 2.8
2016-Apr-27 20:33N 47°31' W 122°28'2 1.8
2016-Apr-27 19:33N 47°31' W 122°25'2 1.7
2016-Apr-27 18:34N 47°31' W 122°28'0 0.1
2016-Apr-27 17:33N 47°31' W 122°28'0 0.2
2016-Apr-27 16:34N 47°31' W 122°28'3 2.8
2016-Apr-27 15:34N 47°31' W 122°24'3 2.8
2016-Apr-27 14:33N 47°31' W 122°28'0 0.0
2016-Apr-27 13:34N 47°31' W 122°28'0 0.0
2016-Apr-27 12:33N 47°31' W 122°28'0 0.0
2016-Apr-27 11:33N 47°31' W 122°28'0 0.0
2016-Apr-27 10:33N 47°31' W 122°28'0 0.0
2016-Apr-27 09:33N 47°31' W 122°28'0 0.0
2016-Apr-27 08:33N 47°31' W 122°28'0 0.0
2016-Apr-27 07:33N 47°31' W 122°28'0 0.0
2016-Apr-27 06:33N 47°31' W 122°28'0 0.0
2016-Apr-27 05:33N 47°31' W 122°28'1 1.3
2016-Apr-27 04:33N 47°31' W 122°30'2 1.7
2016-Apr-27 03:34N 47°31' W 122°27'0 0.4
2016-Apr-27 02:33N 47°31' W 122°28'3 2.8
2016-Apr-27 01:33N 47°31' W 122°24'3 2.8
2016-Apr-27 00:33N 47°31' W 122°28'0 0.0
2016-Apr-26 23:33N 47°31' W 122°28'2 1.6
2016-Apr-26 22:33N 47°31' W 122°25'1 1.2
2016-Apr-26 21:33N 47°31' W 122°24'3 2.8
2016-Apr-26 20:33N 47°31' W 122°28'1 1.2
2016-Apr-26 19:34N 47°31' W 122°26'1 1.1
2016-Apr-26 18:33N 47°31' W 122°28'0 0.4
2016-Apr-26 17:33N 47°31' W 122°27'1 0.5
2016-Apr-26 16:33N 47°31' W 122°28'3 2.8
2016-Apr-26 15:34N 47°31' W 122°24'  

Dump ship's entire track history